sensor_id;sensor_type;location;lat;lon;timestamp;P1;durP1;ratioP1;P2;durP2;ratioP2
21943;SDS011;11136;48.778;9.126;2023-02-01T00:02:00;3.08;;;2.00;;
21943;SDS011;11136;48.778;9.126;2023-02-01T00:04:26;2.28;;;2.05;;
21943;SDS011;11136;48.778;9.126;2023-02-01T00:06:52;1.83;;;1.40;;
21943;SDS011;11136;48.778;9.126;2023-02-01T00:09:18;4.32;;;2.63;;
21943;SDS011;11136;48.778;9.126;2023-02-01T00:11:43;3.20;;;1.63;;
21943;SDS011;11136;48.778;9.126;2023-02-01T00:14:09;2.65;;;1.67;;
21943;SDS011;11136;48.778;9.126;2023-02-01T00:16:35;4.95;;;2.53;;
21943;SDS011;11136;48.778;9.126;2023-02-01T00:19:03;3.08;;;2.40;;
21943;SDS011;11136;48.778;9.126;2023-02-01T00:21:35;2.75;;;2.00;;
21943;SDS011;11136;48.778;9.126;2023-02-01T00:24:00;2.33;;;1.85;;
21943;SDS011;11136;48.778;9.126;2023-02-01T00:26:37;2.70;;;1.85;;
21943;SDS011;11136;48.778;9.126;2023-02-01T00:29:05;2.55;;;2.08;;
21943;SDS011;11136;48.778;9.126;2023-02-01T00:31:35;3.15;;;1.90;;
21943;SDS011;11136;48.778;9.126;2023-02-01T00:34:01;2.97;;;1.92;;
21943;SDS011;11136;48.778;9.126;2023-02-01T00:36:27;2.47;;;1.85;;
21943;SDS011;11136;48.778;9.126;2023-02-01T00:38:53;2.80;;;1.77;;
21943;SDS011;11136;48.778;9.126;2023-02-01T00:41:19;2.15;;;1.95;;
21943;SDS011;11136;48.778;9.126;2023-02-01T00:43:46;3.35;;;1.60;;
21943;SDS011;11136;48.778;9.126;2023-02-01T00:46:15;2.65;;;1.92;;
21943;SDS011;11136;48.778;9.126;2023-02-01T00:48:42;2.25;;;1.75;;
21943;SDS011;11136;48.778;9.126;2023-02-01T00:51:10;3.58;;;1.85;;
21943;SDS011;11136;48.778;9.126;2023-02-01T00:53:38;2.72;;;1.92;;
21943;SDS011;11136;48.778;9.126;2023-02-01T00:56:04;1.30;;;1.20;;
21943;SDS011;11136;48.778;9.126;2023-02-01T00:58:30;1.30;;;1.20;;
21943;SDS011;11136;48.778;9.126;2023-02-01T01:01:00;2.20;;;2.00;;
21943;SDS011;11136;48.778;9.126;2023-02-01T01:03:30;3.95;;;1.80;;
21943;SDS011;11136;48.778;9.126;2023-02-01T01:05:58;2.38;;;1.55;;
21943;SDS011;11136;48.778;9.126;2023-02-01T01:08:24;2.33;;;1.70;;
21943;SDS011;11136;48.778;9.126;2023-02-01T01:10:50;2.83;;;1.63;;
21943;SDS011;11136;48.778;9.126;2023-02-01T01:13:16;2.13;;;1.75;;
21943;SDS011;11136;48.778;9.126;2023-02-01T01:15:41;1.67;;;1.33;;
21943;SDS011;11136;48.778;9.126;2023-02-01T01:18:07;4.28;;;1.83;;
21943;SDS011;11136;48.778;9.126;2023-02-01T01:20:34;2.50;;;1.63;;
21943;SDS011;11136;48.778;9.126;2023-02-01T01:23:02;2.63;;;1.50;;
21943;SDS011;11136;48.778;9.126;2023-02-01T01:25:28;1.88;;;1.50;;
21943;SDS011;11136;48.778;9.126;2023-02-01T01:27:53;2.97;;;1.50;;
21943;SDS011;11136;48.778;9.126;2023-02-01T01:30:19;1.67;;;1.35;;
21943;SDS011;11136;48.778;9.126;2023-02-01T01:32:45;2.97;;;1.42;;
21943;SDS011;11136;48.778;9.126;2023-02-01T01:35:10;1.30;;;1.20;;
21943;SDS011;11136;48.778;9.126;2023-02-01T01:37:36;1.27;;;1.08;;
21943;SDS011;11136;48.778;9.126;2023-02-01T01:40:03;1.92;;;1.48;;
21943;SDS011;11136;48.778;9.126;2023-02-01T01:42:30;1.15;;;1.05;;
21943;SDS011;11136;48.778;9.126;2023-02-01T01:45:00;3.03;;;1.40;;
21943;SDS011;11136;48.778;9.126;2023-02-01T01:47:35;1.20;;;1.08;;
21943;SDS011;11136;48.778;9.126;2023-02-01T01:50:08;1.83;;;1.30;;
21943;SDS011;11136;48.778;9.126;2023-02-01T01:52:37;2.23;;;1.10;;
21943;SDS011;11136;48.778;9.126;2023-02-01T01:55:05;1.00;;;0.90;;
21943;SDS011;11136;48.778;9.126;2023-02-01T01:57:33;3.50;;;1.85;;
21943;SDS011;11136;48.778;9.126;2023-02-01T02:00:07;1.67;;;1.33;;
21943;SDS011;11136;48.778;9.126;2023-02-01T02:02:35;1.40;;;1.30;;
21943;SDS011;11136;48.778;9.126;2023-02-01T02:05:02;1.23;;;1.13;;
21943;SDS011;11136;48.778;9.126;2023-02-01T02:07:30;1.20;;;1.10;;
21943;SDS011;11136;48.778;9.126;2023-02-01T02:10:00;1.15;;;1.02;;
21943;SDS011;11136;48.778;9.126;2023-02-01T02:12:27;2.70;;;1.48;;
21943;SDS011;11136;48.778;9.126;2023-02-01T02:14:53;1.63;;;1.52;;
21943;SDS011;11136;48.778;9.126;2023-02-01T02:28:00;3.60;;;1.23;;
21943;SDS011;11136;48.778;9.126;2023-02-01T02:36:17;4.47;;;1.85;;
21943;SDS011;11136;48.778;9.126;2023-02-01T02:39:27;2.28;;;1.77;;
21943;SDS011;11136;48.778;9.126;2023-02-01T02:42:24;1.95;;;1.75;;
21943;SDS011;11136;48.778;9.126;2023-02-01T02:45:17;2.47;;;1.88;;
21943;SDS011;11136;48.778;9.126;2023-02-01T02:48:13;2.50;;;1.92;;
21943;SDS011;11136;48.778;9.126;2023-02-01T02:51:00;3.08;;;2.35;;
21943;SDS011;11136;48.778;9.126;2023-02-01T02:56:53;1.77;;;1.50;;
21943;SDS011;11136;48.778;9.126;2023-02-01T02:59:40;1.85;;;1.65;;
21943;SDS011;11136;48.778;9.126;2023-02-01T03:02:26;2.53;;;2.00;;
21943;SDS011;11136;48.778;9.126;2023-02-01T03:05:12;2.47;;;1.88;;
21943;SDS011;11136;48.778;9.126;2023-02-01T03:16:23;3.90;;;1.77;;
21943;SDS011;11136;48.778;9.126;2023-02-01T03:18:52;2.30;;;1.70;;
21943;SDS011;11136;48.778;9.126;2023-02-01T03:21:40;2.72;;;1.95;;
21943;SDS011;11136;48.778;9.126;2023-02-01T03:27:46;2.22;;;1.50;;
21943;SDS011;11136;48.778;9.126;2023-02-01T03:32:51;2.53;;;1.75;;
21943;SDS011;11136;48.778;9.126;2023-02-01T03:35:26;1.55;;;1.40;;
21943;SDS011;11136;48.778;9.126;2023-02-01T03:38:03;2.75;;;1.85;;
21943;SDS011;11136;48.778;9.126;2023-02-01T03:40:47;2.30;;;1.73;;
21943;SDS011;11136;48.778;9.126;2023-02-01T03:43:25;1.52;;;1.42;;
21943;SDS011;11136;48.778;9.126;2023-02-01T03:45:58;2.33;;;1.73;;
21943;SDS011;11136;48.778;9.126;2023-02-01T03:48:25;2.75;;;1.73;;
21943;SDS011;11136;48.778;9.126;2023-02-01T03:50:53;1.92;;;1.60;;
21943;SDS011;11136;48.778;9.126;2023-02-01T03:53:22;3.10;;;2.08;;
21943;SDS011;11136;48.778;9.126;2023-02-01T03:55:50;1.75;;;1.52;;
21943;SDS011;11136;48.778;9.126;2023-02-01T03:58:21;2.28;;;1.83;;
21943;SDS011;11136;48.778;9.126;2023-02-01T04:00:55;2.80;;;2.05;;
21943;SDS011;11136;48.778;9.126;2023-02-01T04:03:22;1.88;;;1.42;;
21943;SDS011;11136;48.778;9.126;2023-02-01T04:05:50;2.10;;;1.60;;
21943;SDS011;11136;48.778;9.126;2023-02-01T04:08:16;1.50;;;1.20;;
21943;SDS011;11136;48.778;9.126;2023-02-01T04:10:42;2.33;;;1.40;;
21943;SDS011;11136;48.778;9.126;2023-02-01T04:13:08;1.60;;;1.33;;
21943;SDS011;11136;48.778;9.126;2023-02-01T04:15:34;1.70;;;1.60;;
21943;SDS011;11136;48.778;9.126;2023-02-01T04:18:00;1.75;;;1.30;;
21943;SDS011;11136;48.778;9.126;2023-02-01T04:20:25;1.65;;;1.55;;
21943;SDS011;11136;48.778;9.126;2023-02-01T04:22:51;1.50;;;1.40;;
21943;SDS011;11136;48.778;9.126;2023-02-01T04:25:17;3.22;;;1.80;;
21943;SDS011;11136;48.778;9.126;2023-02-01T04:27:42;1.95;;;1.55;;
21943;SDS011;11136;48.778;9.126;2023-02-01T04:30:09;4.63;;;1.77;;
21943;SDS011;11136;48.778;9.126;2023-02-01T04:32:37;2.47;;;1.63;;
21943;SDS011;11136;48.778;9.126;2023-02-01T04:35:03;1.73;;;1.25;;
21943;SDS011;11136;48.778;9.126;2023-02-01T04:37:29;1.52;;;1.23;;
21943;SDS011;11136;48.778;9.126;2023-02-01T04:39:54;1.80;;;1.70;;
21943;SDS011;11136;48.778;9.126;2023-02-01T04:42:20;3.05;;;1.77;;
21943;SDS011;11136;48.778;9.126;2023-02-01T04:44:46;4.13;;;1.90;;
21943;SDS011;11136;48.778;9.126;2023-02-01T04:47:11;2.63;;;1.67;;
21943;SDS011;11136;48.778;9.126;2023-02-01T04:49:37;3.45;;;1.70;;
21943;SDS011;11136;48.778;9.126;2023-02-01T04:52:03;1.50;;;1.40;;
21943;SDS011;11136;48.778;9.126;2023-02-01T04:54:28;1.95;;;1.50;;
21943;SDS011;11136;48.778;9.126;2023-02-01T04:56:54;1.42;;;1.33;;
21943;SDS011;11136;48.778;9.126;2023-02-01T04:59:20;3.03;;;1.20;;
21943;SDS011;11136;48.778;9.126;2023-02-01T05:01:45;2.67;;;1.58;;
21943;SDS011;11136;48.778;9.126;2023-02-01T05:04:11;1.88;;;1.40;;
21943;SDS011;11136;48.778;9.126;2023-02-01T05:06:37;1.42;;;1.05;;
21943;SDS011;11136;48.778;9.126;2023-02-01T05:09:03;2.75;;;1.70;;
21943;SDS011;11136;48.778;9.126;2023-02-01T05:11:28;2.13;;;1.45;;
21943;SDS011;11136;48.778;9.126;2023-02-01T05:14:13;1.65;;;1.40;;
21943;SDS011;11136;48.778;9.126;2023-02-01T05:16:38;1.73;;;1.23;;
21943;SDS011;11136;48.778;9.126;2023-02-01T05:19:04;3.08;;;1.65;;
21943;SDS011;11136;48.778;9.126;2023-02-01T05:21:30;1.38;;;1.27;;
21943;SDS011;11136;48.778;9.126;2023-02-01T05:23:55;1.85;;;1.50;;
21943;SDS011;11136;48.778;9.126;2023-02-01T05:26:44;2.40;;;1.80;;
21943;SDS011;11136;48.778;9.126;2023-02-01T05:29:11;2.53;;;1.60;;
21943;SDS011;11136;48.778;9.126;2023-02-01T05:31:37;1.75;;;1.42;;
21943;SDS011;11136;48.778;9.126;2023-02-01T05:34:04;2.25;;;1.70;;
21943;SDS011;11136;48.778;9.126;2023-02-01T05:36:30;1.88;;;1.40;;
21943;SDS011;11136;48.778;9.126;2023-02-01T05:38:56;2.50;;;1.42;;
21943;SDS011;11136;48.778;9.126;2023-02-01T05:41:22;2.63;;;1.67;;
21943;SDS011;11136;48.778;9.126;2023-02-01T05:43:47;2.35;;;1.58;;
21943;SDS011;11136;48.778;9.126;2023-02-01T05:46:13;2.78;;;1.80;;
21943;SDS011;11136;48.778;9.126;2023-02-01T05:48:39;2.40;;;1.80;;
21943;SDS011;11136;48.778;9.126;2023-02-01T05:51:06;2.10;;;1.70;;
21943;SDS011;11136;48.778;9.126;2023-02-01T05:53:33;3.05;;;2.10;;
21943;SDS011;11136;48.778;9.126;2023-02-01T05:55:58;2.60;;;1.60;;
21943;SDS011;11136;48.778;9.126;2023-02-01T05:58:24;3.20;;;2.10;;
21943;SDS011;11136;48.778;9.126;2023-02-01T06:00:50;3.80;;;1.88;;
21943;SDS011;11136;48.778;9.126;2023-02-01T06:03:15;1.83;;;1.48;;
21943;SDS011;11136;48.778;9.126;2023-02-01T06:05:43;2.90;;;1.52;;
21943;SDS011;11136;48.778;9.126;2023-02-01T06:08:09;4.57;;;2.00;;
21943;SDS011;11136;48.778;9.126;2023-02-01T06:10:35;2.55;;;1.90;;
21943;SDS011;11136;48.778;9.126;2023-02-01T06:13:00;2.45;;;1.92;;
21943;SDS011;11136;48.778;9.126;2023-02-01T06:15:28;2.72;;;1.80;;
21943;SDS011;11136;48.778;9.126;2023-02-01T06:17:53;1.90;;;1.58;;
21943;SDS011;11136;48.778;9.126;2023-02-01T06:20:19;3.95;;;1.67;;
21943;SDS011;11136;48.778;9.126;2023-02-01T06:22:46;3.92;;;1.92;;
21943;SDS011;11136;48.778;9.126;2023-02-01T06:25:11;2.20;;;1.70;;
21943;SDS011;11136;48.778;9.126;2023-02-01T06:27:37;2.25;;;1.70;;
21943;SDS011;11136;48.778;9.126;2023-02-01T06:30:03;2.28;;;1.83;;
21943;SDS011;11136;48.778;9.126;2023-02-01T06:32:31;4.40;;;2.08;;
21943;SDS011;11136;48.778;9.126;2023-02-01T06:34:57;3.17;;;2.05;;
21943;SDS011;11136;48.778;9.126;2023-02-01T06:37:24;2.33;;;1.95;;
21943;SDS011;11136;48.778;9.126;2023-02-01T06:39:51;2.75;;;1.80;;
21943;SDS011;11136;48.778;9.126;2023-02-01T06:42:16;3.47;;;1.75;;
21943;SDS011;11136;48.778;9.126;2023-02-01T06:44:42;5.00;;;2.03;;
21943;SDS011;11136;48.778;9.126;2023-02-01T06:47:08;3.53;;;1.83;;
21943;SDS011;11136;48.778;9.126;2023-02-01T06:49:33;5.13;;;1.85;;
21943;SDS011;11136;48.778;9.126;2023-02-01T06:51:59;3.85;;;2.05;;
21943;SDS011;11136;48.778;9.126;2023-02-01T06:54:25;3.67;;;1.83;;
21943;SDS011;11136;48.778;9.126;2023-02-01T06:56:51;2.40;;;1.80;;
21943;SDS011;11136;48.778;9.126;2023-02-01T06:59:17;4.50;;;2.08;;
21943;SDS011;11136;48.778;9.126;2023-02-01T07:01:42;5.38;;;2.15;;
21943;SDS011;11136;48.778;9.126;2023-02-01T07:04:09;3.75;;;2.22;;
21943;SDS011;11136;48.778;9.126;2023-02-01T07:06:36;4.90;;;1.90;;
21943;SDS011;11136;48.778;9.126;2023-02-01T07:09:03;3.53;;;2.05;;
21943;SDS011;11136;48.778;9.126;2023-02-01T07:11:28;5.90;;;2.13;;
21943;SDS011;11136;48.778;9.126;2023-02-01T07:13:55;8.32;;;2.50;;
21943;SDS011;11136;48.778;9.126;2023-02-01T07:16:21;4.28;;;2.03;;
21943;SDS011;11136;48.778;9.126;2023-02-01T07:18:47;3.33;;;2.13;;
21943;SDS011;11136;48.778;9.126;2023-02-01T07:21:14;4.93;;;1.80;;
21943;SDS011;11136;48.778;9.126;2023-02-01T07:23:39;4.10;;;1.83;;
21943;SDS011;11136;48.778;9.126;2023-02-01T07:26:06;4.90;;;2.38;;
21943;SDS011;11136;48.778;9.126;2023-02-01T07:28:33;2.60;;;1.77;;
21943;SDS011;11136;48.778;9.126;2023-02-01T07:33:47;4.22;;;1.92;;
21943;SDS011;11136;48.778;9.126;2023-02-01T07:36:16;6.38;;;2.28;;
21943;SDS011;11136;48.778;9.126;2023-02-01T07:38:43;4.55;;;2.30;;
21943;SDS011;11136;48.778;9.126;2023-02-01T07:41:09;7.10;;;2.20;;
21943;SDS011;11136;48.778;9.126;2023-02-01T07:43:35;4.57;;;2.20;;
21943;SDS011;11136;48.778;9.126;2023-02-01T07:46:01;4.82;;;2.22;;
21943;SDS011;11136;48.778;9.126;2023-02-01T07:48:28;3.10;;;2.15;;
21943;SDS011;11136;48.778;9.126;2023-02-01T07:51:00;5.00;;;2.80;;
21943;SDS011;11136;48.778;9.126;2023-02-01T07:53:44;5.88;;;2.33;;
21943;SDS011;11136;48.778;9.126;2023-02-01T07:56:14;2.55;;;2.00;;
21943;SDS011;11136;48.778;9.126;2023-02-01T07:58:41;3.08;;;2.20;;
21943;SDS011;11136;48.778;9.126;2023-02-01T08:01:17;4.45;;;2.33;;
21943;SDS011;11136;48.778;9.126;2023-02-01T08:03:44;4.93;;;2.15;;
21943;SDS011;11136;48.778;9.126;2023-02-01T08:06:11;7.00;;;2.40;;
21943;SDS011;11136;48.778;9.126;2023-02-01T08:08:37;3.67;;;2.50;;
21943;SDS011;11136;48.778;9.126;2023-02-01T08:11:03;5.57;;;2.60;;
21943;SDS011;11136;48.778;9.126;2023-02-01T08:13:30;8.05;;;2.25;;
21943;SDS011;11136;48.778;9.126;2023-02-01T08:15:59;7.45;;;2.60;;
21943;SDS011;11136;48.778;9.126;2023-02-01T08:18:26;4.88;;;2.03;;
21943;SDS011;11136;48.778;9.126;2023-02-01T08:20:51;8.73;;;2.65;;
21943;SDS011;11136;48.778;9.126;2023-02-01T08:23:17;3.35;;;1.63;;
21943;SDS011;11136;48.778;9.126;2023-02-01T08:25:43;6.10;;;2.60;;
21943;SDS011;11136;48.778;9.126;2023-02-01T08:28:09;8.25;;;2.53;;
21943;SDS011;11136;48.778;9.126;2023-02-01T08:30:38;4.93;;;1.80;;
21943;SDS011;11136;48.778;9.126;2023-02-01T08:33:05;2.53;;;1.48;;
21943;SDS011;11136;48.778;9.126;2023-02-01T08:35:32;13.18;;;2.45;;
21943;SDS011;11136;48.778;9.126;2023-02-01T08:38:00;3.05;;;1.73;;
21943;SDS011;11136;48.778;9.126;2023-02-01T08:40:25;5.22;;;2.50;;
21943;SDS011;11136;48.778;9.126;2023-02-01T08:42:51;6.25;;;2.10;;
21943;SDS011;11136;48.778;9.126;2023-02-01T08:45:17;7.57;;;2.58;;
21943;SDS011;11136;48.778;9.126;2023-02-01T08:47:44;6.22;;;2.67;;
21943;SDS011;11136;48.778;9.126;2023-02-01T08:50:11;7.40;;;2.20;;
21943;SDS011;11136;48.778;9.126;2023-02-01T08:52:38;7.60;;;2.80;;
21943;SDS011;11136;48.778;9.126;2023-02-01T08:55:04;6.13;;;2.70;;
21943;SDS011;11136;48.778;9.126;2023-02-01T08:57:31;12.73;;;2.60;;
21943;SDS011;11136;48.778;9.126;2023-02-01T08:59:57;3.72;;;2.53;;
21943;SDS011;11136;48.778;9.126;2023-02-01T09:02:22;9.27;;;2.50;;
21943;SDS011;11136;48.778;9.126;2023-02-01T09:04:48;4.00;;;1.95;;
21943;SDS011;11136;48.778;9.126;2023-02-01T09:07:13;8.60;;;2.70;;
21943;SDS011;11136;48.778;9.126;2023-02-01T09:09:39;7.05;;;2.45;;
21943;SDS011;11136;48.778;9.126;2023-02-01T09:12:05;7.68;;;2.55;;
21943;SDS011;11136;48.778;9.126;2023-02-01T09:14:31;9.85;;;2.90;;
21943;SDS011;11136;48.778;9.126;2023-02-01T09:16:56;9.88;;;2.78;;
21943;SDS011;11136;48.778;9.126;2023-02-01T09:19:22;7.72;;;3.22;;
21943;SDS011;11136;48.778;9.126;2023-02-01T09:21:47;13.57;;;3.70;;
21943;SDS011;11136;48.778;9.126;2023-02-01T09:24:13;7.75;;;2.53;;
21943;SDS011;11136;48.778;9.126;2023-02-01T09:26:39;8.02;;;2.67;;
21943;SDS011;11136;48.778;9.126;2023-02-01T09:29:05;7.55;;;2.85;;
21943;SDS011;11136;48.778;9.126;2023-02-01T09:31:38;9.43;;;2.33;;
21943;SDS011;11136;48.778;9.126;2023-02-01T09:34:04;11.07;;;2.97;;
21943;SDS011;11136;48.778;9.126;2023-02-01T09:36:31;9.82;;;3.00;;
21943;SDS011;11136;48.778;9.126;2023-02-01T09:38:57;8.65;;;2.58;;
21943;SDS011;11136;48.778;9.126;2023-02-01T09:46:40;5.18;;;2.50;;
21943;SDS011;11136;48.778;9.126;2023-02-01T09:49:16;8.27;;;2.70;;
21943;SDS011;11136;48.778;9.126;2023-02-01T09:51:47;8.80;;;2.72;;
21943;SDS011;11136;48.778;9.126;2023-02-01T09:54:16;13.15;;;3.08;;
21943;SDS011;11136;48.778;9.126;2023-02-01T09:56:48;11.48;;;2.75;;
21943;SDS011;11136;48.778;9.126;2023-02-01T09:59:38;11.98;;;2.85;;
21943;SDS011;11136;48.778;9.126;2023-02-01T10:02:14;11.52;;;3.20;;
21943;SDS011;11136;48.778;9.126;2023-02-01T10:04:46;13.60;;;3.13;;
21943;SDS011;11136;48.778;9.126;2023-02-01T10:10:35;8.00;;;3.28;;
21943;SDS011;11136;48.778;9.126;2023-02-01T10:21:51;11.00;;;2.55;;
21943;SDS011;11136;48.778;9.126;2023-02-01T10:24:45;11.07;;;2.83;;
21943;SDS011;11136;48.778;9.126;2023-02-01T10:27:35;15.77;;;2.38;;
21943;SDS011;11136;48.778;9.126;2023-02-01T10:30:22;12.20;;;2.60;;
21943;SDS011;11136;48.778;9.126;2023-02-01T10:32:51;9.82;;;2.17;;
21943;SDS011;11136;48.778;9.126;2023-02-01T10:35:37;8.18;;;2.60;;
21943;SDS011;11136;48.778;9.126;2023-02-01T10:38:03;10.82;;;2.40;;
21943;SDS011;11136;48.778;9.126;2023-02-01T10:40:37;8.75;;;2.65;;
21943;SDS011;11136;48.778;9.126;2023-02-01T10:43:02;10.05;;;2.28;;
21943;SDS011;11136;48.778;9.126;2023-02-01T10:45:29;11.35;;;3.53;;
21943;SDS011;11136;48.778;9.126;2023-02-01T10:47:57;11.13;;;4.03;;
21943;SDS011;11136;48.778;9.126;2023-02-01T10:50:33;7.88;;;2.85;;
21943;SDS011;11136;48.778;9.126;2023-02-01T10:55:49;7.85;;;2.63;;
21943;SDS011;11136;48.778;9.126;2023-02-01T10:58:18;8.85;;;2.85;;
21943;SDS011;11136;48.778;9.126;2023-02-01T11:01:06;5.63;;;2.78;;
21943;SDS011;11136;48.778;9.126;2023-02-01T11:06:02;8.80;;;3.42;;
21943;SDS011;11136;48.778;9.126;2023-02-01T11:08:41;7.32;;;2.42;;
21943;SDS011;11136;48.778;9.126;2023-02-01T11:11:10;10.48;;;2.90;;
21943;SDS011;11136;48.778;9.126;2023-02-01T11:13:37;7.90;;;2.63;;
21943;SDS011;11136;48.778;9.126;2023-02-01T11:16:04;9.60;;;2.20;;
21943;SDS011;11136;48.778;9.126;2023-02-01T11:18:32;6.88;;;2.90;;
21943;SDS011;11136;48.778;9.126;2023-02-01T11:21:01;12.18;;;2.72;;
21943;SDS011;11136;48.778;9.126;2023-02-01T11:23:28;22.38;;;3.10;;
21943;SDS011;11136;48.778;9.126;2023-02-01T11:25:56;8.10;;;2.95;;
21943;SDS011;11136;48.778;9.126;2023-02-01T11:28:25;6.53;;;2.92;;
21943;SDS011;11136;48.778;9.126;2023-02-01T11:30:56;8.88;;;2.97;;
21943;SDS011;11136;48.778;9.126;2023-02-01T11:33:35;10.27;;;3.58;;
21943;SDS011;11136;48.778;9.126;2023-02-01T11:36:12;6.70;;;2.08;;
21943;SDS011;11136;48.778;9.126;2023-02-01T11:38:40;8.20;;;2.67;;
21943;SDS011;11136;48.778;9.126;2023-02-01T11:41:13;7.20;;;2.70;;
21943;SDS011;11136;48.778;9.126;2023-02-01T11:43:50;12.10;;;2.85;;
21943;SDS011;11136;48.778;9.126;2023-02-01T11:46:18;12.32;;;2.50;;
21943;SDS011;11136;48.778;9.126;2023-02-01T11:48:49;8.38;;;2.53;;
21943;SDS011;11136;48.778;9.126;2023-02-01T11:59:23;13.05;;;2.28;;
21943;SDS011;11136;48.778;9.126;2023-02-01T12:07:28;5.15;;;2.22;;
21943;SDS011;11136;48.778;9.126;2023-02-01T12:26:13;12.15;;;2.00;;
21943;SDS011;11136;48.778;9.126;2023-02-01T12:39:31;10.15;;;3.08;;
21943;SDS011;11136;48.778;9.126;2023-02-01T12:42:26;11.93;;;3.10;;
21943;SDS011;11136;48.778;9.126;2023-02-01T12:45:06;7.03;;;2.13;;
21943;SDS011;11136;48.778;9.126;2023-02-01T12:47:47;9.40;;;2.22;;
21943;SDS011;11136;48.778;9.126;2023-02-01T12:50:31;8.68;;;1.65;;
21943;SDS011;11136;48.778;9.126;2023-02-01T12:53:07;8.45;;;2.03;;
21943;SDS011;11136;48.778;9.126;2023-02-01T12:55:47;11.45;;;2.42;;
21943;SDS011;11136;48.778;9.126;2023-02-01T12:58:21;5.53;;;2.38;;
21943;SDS011;11136;48.778;9.126;2023-02-01T13:07:05;12.65;;;3.13;;
21943;SDS011;11136;48.778;9.126;2023-02-01T13:09:41;7.93;;;2.83;;
21943;SDS011;11136;48.778;9.126;2023-02-01T13:12:29;9.30;;;3.50;;
21943;SDS011;11136;48.778;9.126;2023-02-01T13:15:23;6.75;;;2.60;;
21943;SDS011;11136;48.778;9.126;2023-02-01T13:17:47;17.92;;;3.88;;
21943;SDS011;11136;48.778;9.126;2023-02-01T13:22:54;8.20;;;1.60;;
21943;SDS011;11136;48.778;9.126;2023-02-01T13:25:48;9.20;;;2.35;;
21943;SDS011;11136;48.778;9.126;2023-02-01T13:39:18;6.10;;;1.90;;
21943;SDS011;11136;48.778;9.126;2023-02-01T13:42:00;8.63;;;2.15;;
21943;SDS011;11136;48.778;9.126;2023-02-01T13:44:37;7.93;;;1.90;;
21943;SDS011;11136;48.778;9.126;2023-02-01T13:47:35;9.40;;;3.28;;
21943;SDS011;11136;48.778;9.126;2023-02-01T13:55:54;9.05;;;2.85;;
21943;SDS011;11136;48.778;9.126;2023-02-01T13:58:30;7.53;;;2.33;;
21943;SDS011;11136;48.778;9.126;2023-02-01T14:03:48;7.50;;;2.15;;
21943;SDS011;11136;48.778;9.126;2023-02-01T14:06:36;6.90;;;2.55;;
21943;SDS011;11136;48.778;9.126;2023-02-01T14:11:38;7.90;;;2.08;;
21943;SDS011;11136;48.778;9.126;2023-02-01T14:14:49;7.50;;;2.43;;
21943;SDS011;11136;48.778;9.126;2023-02-01T14:19:22;9.13;;;2.60;;
21943;SDS011;11136;48.778;9.126;2023-02-01T14:21:50;6.53;;;2.55;;
21943;SDS011;11136;48.778;9.126;2023-02-01T14:24:25;11.18;;;2.65;;
21943;SDS011;11136;48.778;9.126;2023-02-01T14:26:58;7.85;;;1.92;;
21943;SDS011;11136;48.778;9.126;2023-02-01T14:29:36;10.23;;;3.42;;
21943;SDS011;11136;48.778;9.126;2023-02-01T14:42:45;9.82;;;2.22;;
21943;SDS011;11136;48.778;9.126;2023-02-01T14:47:53;3.05;;;1.70;;
21943;SDS011;11136;48.778;9.126;2023-02-01T14:58:31;11.20;;;3.17;;
21943;SDS011;11136;48.778;9.126;2023-02-01T15:06:22;9.90;;;2.47;;
21943;SDS011;11136;48.778;9.126;2023-02-01T15:09:04;7.70;;;2.58;;
21943;SDS011;11136;48.778;9.126;2023-02-01T15:16:48;7.07;;;2.17;;
21943;SDS011;11136;48.778;9.126;2023-02-01T15:21:53;10.43;;;2.22;;
21943;SDS011;11136;48.778;9.126;2023-02-01T15:24:25;12.60;;;2.50;;
21943;SDS011;11136;48.778;9.126;2023-02-01T15:26:55;7.25;;;1.98;;
21943;SDS011;11136;48.778;9.126;2023-02-01T15:29:28;10.43;;;2.58;;
21943;SDS011;11136;48.778;9.126;2023-02-01T15:31:57;4.53;;;1.98;;
21943;SDS011;11136;48.778;9.126;2023-02-01T15:34:23;7.57;;;2.10;;
21943;SDS011;11136;48.778;9.126;2023-02-01T15:37:12;4.55;;;2.20;;
21943;SDS011;11136;48.778;9.126;2023-02-01T15:40:02;6.90;;;1.95;;
21943;SDS011;11136;48.778;9.126;2023-02-01T15:42:49;14.90;;;2.63;;
21943;SDS011;11136;48.778;9.126;2023-02-01T15:45:25;5.90;;;1.75;;
21943;SDS011;11136;48.778;9.126;2023-02-01T15:47:53;7.97;;;2.07;;
21943;SDS011;11136;48.778;9.126;2023-02-01T15:50:21;11.18;;;3.65;;
21943;SDS011;11136;48.778;9.126;2023-02-01T15:52:48;12.00;;;2.35;;
21943;SDS011;11136;48.778;9.126;2023-02-01T15:55:36;11.63;;;2.55;;
21943;SDS011;11136;48.778;9.126;2023-02-01T15:58:07;11.45;;;2.45;;
21943;SDS011;11136;48.778;9.126;2023-02-01T16:00:46;17.95;;;2.28;;
21943;SDS011;11136;48.778;9.126;2023-02-01T16:06:00;12.25;;;2.55;;
21943;SDS011;11136;48.778;9.126;2023-02-01T16:08:29;6.68;;;2.45;;
21943;SDS011;11136;48.778;9.126;2023-02-01T16:13:34;7.28;;;1.83;;
21943;SDS011;11136;48.778;9.126;2023-02-01T16:16:01;7.82;;;2.17;;
21943;SDS011;11136;48.778;9.126;2023-02-01T16:18:27;9.80;;;2.63;;
21943;SDS011;11136;48.778;9.126;2023-02-01T16:20:52;6.18;;;3.53;;
21943;SDS011;11136;48.778;9.126;2023-02-01T16:23:18;11.25;;;3.20;;
21943;SDS011;11136;48.778;9.126;2023-02-01T16:25:45;11.77;;;2.58;;
21943;SDS011;11136;48.778;9.126;2023-02-01T16:28:11;11.45;;;4.20;;
21943;SDS011;11136;48.778;9.126;2023-02-01T16:30:37;17.58;;;3.08;;
21943;SDS011;11136;48.778;9.126;2023-02-01T16:33:03;5.40;;;2.22;;
21943;SDS011;11136;48.778;9.126;2023-02-01T16:38:02;11.38;;;2.25;;
21943;SDS011;11136;48.778;9.126;2023-02-01T16:40:33;9.65;;;2.20;;
21943;SDS011;11136;48.778;9.126;2023-02-01T16:43:00;11.85;;;3.03;;
21943;SDS011;11136;48.778;9.126;2023-02-01T16:45:25;7.60;;;2.38;;
21943;SDS011;11136;48.778;9.126;2023-02-01T16:47:52;8.43;;;2.72;;
21943;SDS011;11136;48.778;9.126;2023-02-01T16:50:23;8.73;;;2.50;;
21943;SDS011;11136;48.778;9.126;2023-02-01T16:52:50;11.95;;;2.92;;
21943;SDS011;11136;48.778;9.126;2023-02-01T16:55:19;9.30;;;2.45;;
21943;SDS011;11136;48.778;9.126;2023-02-01T17:00:14;7.18;;;1.73;;
21943;SDS011;11136;48.778;9.126;2023-02-01T17:02:40;8.13;;;1.88;;
21943;SDS011;11136;48.778;9.126;2023-02-01T17:05:07;8.95;;;1.95;;
21943;SDS011;11136;48.778;9.126;2023-02-01T17:07:34;9.43;;;2.50;;
21943;SDS011;11136;48.778;9.126;2023-02-01T17:10:00;7.53;;;1.67;;
21943;SDS011;11136;48.778;9.126;2023-02-01T17:12:28;10.90;;;2.17;;
21943;SDS011;11136;48.778;9.126;2023-02-01T17:14:55;10.18;;;2.17;;
21943;SDS011;11136;48.778;9.126;2023-02-01T17:17:22;7.55;;;1.98;;
21943;SDS011;11136;48.778;9.126;2023-02-01T17:19:50;4.95;;;2.03;;
21943;SDS011;11136;48.778;9.126;2023-02-01T17:22:20;11.55;;;3.28;;
21943;SDS011;11136;48.778;9.126;2023-02-01T17:24:47;8.07;;;2.47;;
21943;SDS011;11136;48.778;9.126;2023-02-01T17:27:13;8.45;;;2.15;;
21943;SDS011;11136;48.778;9.126;2023-02-01T17:29:39;6.55;;;2.20;;
21943;SDS011;11136;48.778;9.126;2023-02-01T17:32:06;13.52;;;3.08;;
21943;SDS011;11136;48.778;9.126;2023-02-01T17:34:46;7.03;;;2.20;;
21943;SDS011;11136;48.778;9.126;2023-02-01T17:37:22;5.47;;;1.75;;
21943;SDS011;11136;48.778;9.126;2023-02-01T17:39:50;7.03;;;2.30;;
21943;SDS011;11136;48.778;9.126;2023-02-01T17:42:19;14.02;;;2.45;;
21943;SDS011;11136;48.778;9.126;2023-02-01T17:44:44;12.82;;;2.13;;
21943;SDS011;11136;48.778;9.126;2023-02-01T17:47:10;5.43;;;1.88;;
21943;SDS011;11136;48.778;9.126;2023-02-01T17:49:36;5.88;;;1.92;;
21943;SDS011;11136;48.778;9.126;2023-02-01T17:52:02;8.18;;;1.70;;
21943;SDS011;11136;48.778;9.126;2023-02-01T17:54:29;4.55;;;1.63;;
21943;SDS011;11136;48.778;9.126;2023-02-01T17:56:54;9.77;;;2.47;;
21943;SDS011;11136;48.778;9.126;2023-02-01T17:59:24;5.20;;;2.00;;
21943;SDS011;11136;48.778;9.126;2023-02-01T18:01:50;8.35;;;2.75;;